TAF Text Data
IDs:
Format:
Raw Decoded Include METAR

Data at: 1306 UTC 10 Jul 2020

KMHT 101128Z 1012/1112 15005KT P6SM SCT050 BKN250
  FM101700 12008KT P6SM BKN040
  FM102200 10010KT 5SM -SHRA BR OVC025
  FM110200 09012KT 3SM SHRA BR OVC004